sensor_id;sensor_type;location;lat;lon;timestamp;P1;durP1;ratioP1;P2;durP2;ratioP2
40052;SDS011;25758;48.200;16.338;2023-05-28T00:00:56;4.18;;;1.55;;
40052;SDS011;25758;48.200;16.338;2023-05-28T00:03:22;4.75;;;2.33;;
40052;SDS011;25758;48.200;16.338;2023-05-28T00:05:49;3.92;;;1.90;;
40052;SDS011;25758;48.200;16.338;2023-05-28T00:08:14;4.80;;;1.60;;
40052;SDS011;25758;48.200;16.338;2023-05-28T00:10:40;6.25;;;1.85;;
40052;SDS011;25758;48.200;16.338;2023-05-28T00:13:07;5.00;;;2.03;;
40052;SDS011;25758;48.200;16.338;2023-05-28T00:15:33;6.45;;;1.90;;
40052;SDS011;25758;48.200;16.338;2023-05-28T00:18:00;6.32;;;1.13;;
40052;SDS011;25758;48.200;16.338;2023-05-28T00:20:26;4.90;;;1.98;;
40052;SDS011;25758;48.200;16.338;2023-05-28T00:22:52;7.20;;;2.08;;
40052;SDS011;25758;48.200;16.338;2023-05-28T00:25:17;5.60;;;1.55;;
40052;SDS011;25758;48.200;16.338;2023-05-28T00:27:43;3.35;;;1.52;;
40052;SDS011;25758;48.200;16.338;2023-05-28T00:30:09;4.57;;;1.95;;
40052;SDS011;25758;48.200;16.338;2023-05-28T00:32:34;3.97;;;1.45;;
40052;SDS011;25758;48.200;16.338;2023-05-28T00:35:00;8.55;;;1.65;;
40052;SDS011;25758;48.200;16.338;2023-05-28T00:37:26;7.43;;;1.55;;
40052;SDS011;25758;48.200;16.338;2023-05-28T00:39:52;5.70;;;1.90;;
40052;SDS011;25758;48.200;16.338;2023-05-28T00:42:17;3.88;;;1.88;;
40052;SDS011;25758;48.200;16.338;2023-05-28T00:44:43;11.40;;;2.53;;
40052;SDS011;25758;48.200;16.338;2023-05-28T00:47:09;5.45;;;1.45;;
40052;SDS011;25758;48.200;16.338;2023-05-28T00:49:36;6.30;;;1.60;;
40052;SDS011;25758;48.200;16.338;2023-05-28T00:52:02;3.95;;;1.65;;
40052;SDS011;25758;48.200;16.338;2023-05-28T00:54:32;4.90;;;1.63;;
40052;SDS011;25758;48.200;16.338;2023-05-28T00:56:58;4.00;;;2.10;;
40052;SDS011;25758;48.200;16.338;2023-05-28T00:59:24;4.25;;;1.30;;
40052;SDS011;25758;48.200;16.338;2023-05-28T01:01:51;3.85;;;1.17;;
40052;SDS011;25758;48.200;16.338;2023-05-28T01:04:17;4.38;;;1.83;;
40052;SDS011;25758;48.200;16.338;2023-05-28T01:06:43;6.38;;;1.55;;
40052;SDS011;25758;48.200;16.338;2023-05-28T01:09:10;8.05;;;1.98;;
40052;SDS011;25758;48.200;16.338;2023-05-28T01:11:38;5.15;;;1.90;;
40052;SDS011;25758;48.200;16.338;2023-05-28T01:14:06;4.63;;;1.65;;
40052;SDS011;25758;48.200;16.338;2023-05-28T01:16:32;3.95;;;1.50;;
40052;SDS011;25758;48.200;16.338;2023-05-28T01:18:58;3.88;;;1.70;;
40052;SDS011;25758;48.200;16.338;2023-05-28T01:21:25;4.57;;;1.42;;
40052;SDS011;25758;48.200;16.338;2023-05-28T01:23:56;4.72;;;1.20;;
40052;SDS011;25758;48.200;16.338;2023-05-28T01:26:23;7.65;;;2.40;;
40052;SDS011;25758;48.200;16.338;2023-05-28T01:28:50;7.72;;;1.95;;
40052;SDS011;25758;48.200;16.338;2023-05-28T01:31:16;3.95;;;1.70;;
40052;SDS011;25758;48.200;16.338;2023-05-28T01:33:42;6.10;;;2.05;;
40052;SDS011;25758;48.200;16.338;2023-05-28T01:36:11;6.13;;;1.90;;
40052;SDS011;25758;48.200;16.338;2023-05-28T01:38:42;7.20;;;1.73;;
40052;SDS011;25758;48.200;16.338;2023-05-28T01:41:11;7.28;;;1.80;;
40052;SDS011;25758;48.200;16.338;2023-05-28T01:43:39;7.47;;;1.58;;
40052;SDS011;25758;48.200;16.338;2023-05-28T01:46:05;5.05;;;1.67;;
40052;SDS011;25758;48.200;16.338;2023-05-28T01:48:31;5.55;;;1.90;;
40052;SDS011;25758;48.200;16.338;2023-05-28T01:50:57;6.95;;;2.00;;
40052;SDS011;25758;48.200;16.338;2023-05-28T01:53:22;8.45;;;2.08;;
40052;SDS011;25758;48.200;16.338;2023-05-28T01:55:48;5.40;;;2.00;;
40052;SDS011;25758;48.200;16.338;2023-05-28T01:58:14;6.72;;;1.98;;
40052;SDS011;25758;48.200;16.338;2023-05-28T02:00:42;7.95;;;1.50;;
40052;SDS011;25758;48.200;16.338;2023-05-28T02:03:15;8.15;;;1.77;;
40052;SDS011;25758;48.200;16.338;2023-05-28T02:05:41;2.80;;;1.35;;
40052;SDS011;25758;48.200;16.338;2023-05-28T02:08:06;5.10;;;2.05;;
40052;SDS011;25758;48.200;16.338;2023-05-28T02:10:32;5.80;;;1.65;;
40052;SDS011;25758;48.200;16.338;2023-05-28T02:12:58;7.90;;;1.65;;
40052;SDS011;25758;48.200;16.338;2023-05-28T02:15:25;4.90;;;1.65;;
40052;SDS011;25758;48.200;16.338;2023-05-28T02:17:51;5.03;;;1.80;;
40052;SDS011;25758;48.200;16.338;2023-05-28T02:20:16;5.80;;;2.10;;
40052;SDS011;25758;48.200;16.338;2023-05-28T02:22:42;5.47;;;1.52;;
40052;SDS011;25758;48.200;16.338;2023-05-28T02:25:09;8.07;;;2.28;;
40052;SDS011;25758;48.200;16.338;2023-05-28T02:27:35;6.32;;;1.88;;
40052;SDS011;25758;48.200;16.338;2023-05-28T02:30:01;5.38;;;1.73;;
40052;SDS011;25758;48.200;16.338;2023-05-28T02:32:27;5.07;;;1.52;;
40052;SDS011;25758;48.200;16.338;2023-05-28T02:34:52;2.47;;;1.20;;
40052;SDS011;25758;48.200;16.338;2023-05-28T02:37:19;5.38;;;2.00;;
40052;SDS011;25758;48.200;16.338;2023-05-28T02:39:49;6.65;;;2.00;;
40052;SDS011;25758;48.200;16.338;2023-05-28T02:42:15;7.65;;;1.92;;
40052;SDS011;25758;48.200;16.338;2023-05-28T02:44:41;8.85;;;1.92;;
40052;SDS011;25758;48.200;16.338;2023-05-28T02:47:06;5.50;;;1.92;;
40052;SDS011;25758;48.200;16.338;2023-05-28T02:49:32;4.28;;;1.38;;
40052;SDS011;25758;48.200;16.338;2023-05-28T02:51:58;6.90;;;1.65;;
40052;SDS011;25758;48.200;16.338;2023-05-28T02:54:23;6.22;;;2.33;;
40052;SDS011;25758;48.200;16.338;2023-05-28T02:56:49;7.57;;;2.38;;
40052;SDS011;25758;48.200;16.338;2023-05-28T02:59:16;4.70;;;1.98;;
40052;SDS011;25758;48.200;16.338;2023-05-28T03:01:41;5.65;;;1.77;;
40052;SDS011;25758;48.200;16.338;2023-05-28T03:04:07;8.25;;;3.10;;
40052;SDS011;25758;48.200;16.338;2023-05-28T03:06:33;5.72;;;1.60;;
40052;SDS011;25758;48.200;16.338;2023-05-28T03:08:58;6.55;;;1.83;;
40052;SDS011;25758;48.200;16.338;2023-05-28T03:11:24;6.55;;;1.75;;
40052;SDS011;25758;48.200;16.338;2023-05-28T03:13:50;13.70;;;2.70;;
40052;SDS011;25758;48.200;16.338;2023-05-28T03:16:15;7.47;;;1.98;;
40052;SDS011;25758;48.200;16.338;2023-05-28T03:18:41;7.80;;;1.95;;
40052;SDS011;25758;48.200;16.338;2023-05-28T03:21:07;6.85;;;2.20;;
40052;SDS011;25758;48.200;16.338;2023-05-28T03:23:32;7.03;;;3.05;;
40052;SDS011;25758;48.200;16.338;2023-05-28T03:25:58;11.68;;;3.97;;
40052;SDS011;25758;48.200;16.338;2023-05-28T03:28:23;9.95;;;3.92;;
40052;SDS011;25758;48.200;16.338;2023-05-28T03:30:49;6.57;;;2.70;;
40052;SDS011;25758;48.200;16.338;2023-05-28T03:33:15;5.82;;;2.60;;
40052;SDS011;25758;48.200;16.338;2023-05-28T03:35:41;9.57;;;2.35;;
40052;SDS011;25758;48.200;16.338;2023-05-28T03:38:06;8.18;;;2.47;;
40052;SDS011;25758;48.200;16.338;2023-05-28T03:40:32;7.93;;;2.25;;
40052;SDS011;25758;48.200;16.338;2023-05-28T03:42:58;9.15;;;1.60;;
40052;SDS011;25758;48.200;16.338;2023-05-28T03:45:23;6.57;;;2.40;;
40052;SDS011;25758;48.200;16.338;2023-05-28T03:47:49;7.30;;;1.70;;
40052;SDS011;25758;48.200;16.338;2023-05-28T03:50:15;4.65;;;1.98;;
40052;SDS011;25758;48.200;16.338;2023-05-28T03:52:40;6.25;;;2.33;;
40052;SDS011;25758;48.200;16.338;2023-05-28T03:55:06;5.90;;;1.70;;
40052;SDS011;25758;48.200;16.338;2023-05-28T03:57:33;8.32;;;1.85;;
40052;SDS011;25758;48.200;16.338;2023-05-28T03:59:58;7.25;;;1.90;;
40052;SDS011;25758;48.200;16.338;2023-05-28T04:02:24;6.82;;;2.75;;
40052;SDS011;25758;48.200;16.338;2023-05-28T04:04:50;6.68;;;2.30;;
40052;SDS011;25758;48.200;16.338;2023-05-28T04:07:16;6.28;;;2.55;;
40052;SDS011;25758;48.200;16.338;2023-05-28T04:09:41;9.73;;;3.10;;
40052;SDS011;25758;48.200;16.338;2023-05-28T04:12:07;6.50;;;2.20;;
40052;SDS011;25758;48.200;16.338;2023-05-28T04:14:33;6.38;;;2.72;;
40052;SDS011;25758;48.200;16.338;2023-05-28T04:16:59;7.72;;;2.33;;
40052;SDS011;25758;48.200;16.338;2023-05-28T04:19:25;4.82;;;1.80;;
40052;SDS011;25758;48.200;16.338;2023-05-28T04:21:50;5.35;;;1.83;;
40052;SDS011;25758;48.200;16.338;2023-05-28T04:24:16;5.32;;;2.40;;
40052;SDS011;25758;48.200;16.338;2023-05-28T04:26:41;11.43;;;2.10;;
40052;SDS011;25758;48.200;16.338;2023-05-28T04:29:07;7.10;;;1.83;;
40052;SDS011;25758;48.200;16.338;2023-05-28T04:31:32;6.97;;;1.80;;
40052;SDS011;25758;48.200;16.338;2023-05-28T04:33:58;7.10;;;2.30;;
40052;SDS011;25758;48.200;16.338;2023-05-28T04:36:24;7.28;;;2.22;;
40052;SDS011;25758;48.200;16.338;2023-05-28T04:38:54;6.57;;;1.80;;
40052;SDS011;25758;48.200;16.338;2023-05-28T04:41:22;6.53;;;2.78;;
40052;SDS011;25758;48.200;16.338;2023-05-28T04:43:48;6.47;;;1.77;;
40052;SDS011;25758;48.200;16.338;2023-05-28T04:46:14;8.38;;;2.30;;
40052;SDS011;25758;48.200;16.338;2023-05-28T04:48:39;7.47;;;2.95;;
40052;SDS011;25758;48.200;16.338;2023-05-28T04:51:05;5.50;;;1.65;;
40052;SDS011;25758;48.200;16.338;2023-05-28T04:53:31;5.50;;;2.58;;
40052;SDS011;25758;48.200;16.338;2023-05-28T04:55:58;6.47;;;2.15;;
40052;SDS011;25758;48.200;16.338;2023-05-28T04:58:24;9.35;;;3.13;;
40052;SDS011;25758;48.200;16.338;2023-05-28T05:00:50;4.47;;;1.98;;
40052;SDS011;25758;48.200;16.338;2023-05-28T05:03:17;6.75;;;2.28;;
40052;SDS011;25758;48.200;16.338;2023-05-28T05:05:43;7.60;;;2.25;;
40052;SDS011;25758;48.200;16.338;2023-05-28T05:08:08;6.57;;;2.10;;
40052;SDS011;25758;48.200;16.338;2023-05-28T05:10:38;9.13;;;2.33;;
40052;SDS011;25758;48.200;16.338;2023-05-28T05:13:04;7.78;;;2.03;;
40052;SDS011;25758;48.200;16.338;2023-05-28T05:15:29;10.02;;;4.53;;
40052;SDS011;25758;48.200;16.338;2023-05-28T05:17:55;4.15;;;2.08;;
40052;SDS011;25758;48.200;16.338;2023-05-28T05:20:21;4.88;;;1.67;;
40052;SDS011;25758;48.200;16.338;2023-05-28T05:22:47;7.65;;;2.10;;
40052;SDS011;25758;48.200;16.338;2023-05-28T05:25:12;4.93;;;2.17;;
40052;SDS011;25758;48.200;16.338;2023-05-28T05:27:38;4.85;;;1.75;;
40052;SDS011;25758;48.200;16.338;2023-05-28T05:30:04;6.55;;;2.33;;
40052;SDS011;25758;48.200;16.338;2023-05-28T05:32:30;9.43;;;2.58;;
40052;SDS011;25758;48.200;16.338;2023-05-28T05:34:56;7.80;;;2.35;;
40052;SDS011;25758;48.200;16.338;2023-05-28T05:37:21;10.45;;;2.13;;
40052;SDS011;25758;48.200;16.338;2023-05-28T05:39:48;6.63;;;2.47;;
40052;SDS011;25758;48.200;16.338;2023-05-28T05:42:13;3.92;;;1.73;;
40052;SDS011;25758;48.200;16.338;2023-05-28T05:44:39;5.53;;;2.13;;
40052;SDS011;25758;48.200;16.338;2023-05-28T05:47:04;8.13;;;1.90;;
40052;SDS011;25758;48.200;16.338;2023-05-28T05:49:30;8.90;;;2.08;;
40052;SDS011;25758;48.200;16.338;2023-05-28T05:51:56;7.60;;;2.45;;
40052;SDS011;25758;48.200;16.338;2023-05-28T05:54:21;6.53;;;1.85;;
40052;SDS011;25758;48.200;16.338;2023-05-28T05:56:47;5.88;;;1.83;;
40052;SDS011;25758;48.200;16.338;2023-05-28T05:59:13;6.40;;;2.08;;
40052;SDS011;25758;48.200;16.338;2023-05-28T06:01:39;11.52;;;3.60;;
40052;SDS011;25758;48.200;16.338;2023-05-28T06:04:05;7.22;;;2.42;;
40052;SDS011;25758;48.200;16.338;2023-05-28T06:06:30;5.88;;;2.38;;
40052;SDS011;25758;48.200;16.338;2023-05-28T06:08:56;4.97;;;1.85;;
40052;SDS011;25758;48.200;16.338;2023-05-28T06:11:22;5.95;;;2.10;;
40052;SDS011;25758;48.200;16.338;2023-05-28T06:13:47;4.35;;;1.65;;
40052;SDS011;25758;48.200;16.338;2023-05-28T06:16:14;7.30;;;2.05;;
40052;SDS011;25758;48.200;16.338;2023-05-28T06:18:40;8.07;;;1.98;;
40052;SDS011;25758;48.200;16.338;2023-05-28T06:21:05;7.78;;;1.70;;
40052;SDS011;25758;48.200;16.338;2023-05-28T06:23:33;3.78;;;1.55;;
40052;SDS011;25758;48.200;16.338;2023-05-28T06:25:58;5.28;;;2.05;;
40052;SDS011;25758;48.200;16.338;2023-05-28T06:28:24;4.72;;;2.33;;
40052;SDS011;25758;48.200;16.338;2023-05-28T06:30:50;8.00;;;2.20;;
40052;SDS011;25758;48.200;16.338;2023-05-28T06:33:15;8.23;;;2.63;;
40052;SDS011;25758;48.200;16.338;2023-05-28T06:35:41;10.05;;;3.55;;
40052;SDS011;25758;48.200;16.338;2023-05-28T06:38:07;7.88;;;3.08;;
40052;SDS011;25758;48.200;16.338;2023-05-28T06:40:33;9.63;;;3.25;;
40052;SDS011;25758;48.200;16.338;2023-05-28T06:42:58;5.80;;;3.38;;
40052;SDS011;25758;48.200;16.338;2023-05-28T06:45:26;5.40;;;1.90;;
40052;SDS011;25758;48.200;16.338;2023-05-28T06:47:52;4.40;;;2.40;;
40052;SDS011;25758;48.200;16.338;2023-05-28T06:50:17;13.32;;;6.78;;
40052;SDS011;25758;48.200;16.338;2023-05-28T06:52:43;8.93;;;3.17;;
40052;SDS011;25758;48.200;16.338;2023-05-28T06:55:09;10.90;;;2.17;;
40052;SDS011;25758;48.200;16.338;2023-05-28T06:57:36;7.07;;;2.97;;
40052;SDS011;25758;48.200;16.338;2023-05-28T07:00:05;6.03;;;1.92;;
40052;SDS011;25758;48.200;16.338;2023-05-28T07:02:35;4.15;;;1.58;;
40052;SDS011;25758;48.200;16.338;2023-05-28T07:05:01;12.05;;;2.90;;
40052;SDS011;25758;48.200;16.338;2023-05-28T07:07:29;6.72;;;2.08;;
40052;SDS011;25758;48.200;16.338;2023-05-28T07:09:58;7.72;;;2.30;;
40052;SDS011;25758;48.200;16.338;2023-05-28T07:12:24;5.15;;;2.03;;
40052;SDS011;25758;48.200;16.338;2023-05-28T07:14:50;13.73;;;3.10;;
40052;SDS011;25758;48.200;16.338;2023-05-28T07:17:15;6.47;;;2.45;;
40052;SDS011;25758;48.200;16.338;2023-05-28T07:19:41;11.27;;;3.25;;
40052;SDS011;25758;48.200;16.338;2023-05-28T07:22:07;5.88;;;2.08;;
40052;SDS011;25758;48.200;16.338;2023-05-28T07:24:32;5.57;;;2.25;;
40052;SDS011;25758;48.200;16.338;2023-05-28T07:26:58;4.47;;;2.15;;
40052;SDS011;25758;48.200;16.338;2023-05-28T07:29:25;9.05;;;2.28;;
40052;SDS011;25758;48.200;16.338;2023-05-28T07:31:52;6.50;;;2.28;;
40052;SDS011;25758;48.200;16.338;2023-05-28T07:34:17;8.23;;;2.33;;
40052;SDS011;25758;48.200;16.338;2023-05-28T07:36:43;4.90;;;2.13;;
40052;SDS011;25758;48.200;16.338;2023-05-28T07:39:09;9.38;;;2.53;;
40052;SDS011;25758;48.200;16.338;2023-05-28T07:41:35;8.25;;;3.20;;
40052;SDS011;25758;48.200;16.338;2023-05-28T07:44:01;6.35;;;2.20;;
40052;SDS011;25758;48.200;16.338;2023-05-28T07:46:27;5.40;;;2.30;;
40052;SDS011;25758;48.200;16.338;2023-05-28T07:48:52;8.13;;;2.65;;
40052;SDS011;25758;48.200;16.338;2023-05-28T07:51:18;5.95;;;2.47;;
40052;SDS011;25758;48.200;16.338;2023-05-28T07:53:49;9.52;;;2.30;;
40052;SDS011;25758;48.200;16.338;2023-05-28T07:56:15;6.22;;;2.80;;
40052;SDS011;25758;48.200;16.338;2023-05-28T07:58:44;7.68;;;2.35;;
40052;SDS011;25758;48.200;16.338;2023-05-28T08:01:10;9.13;;;2.45;;
40052;SDS011;25758;48.200;16.338;2023-05-28T08:03:36;7.20;;;3.03;;
40052;SDS011;25758;48.200;16.338;2023-05-28T08:06:02;6.35;;;2.40;;
40052;SDS011;25758;48.200;16.338;2023-05-28T08:08:28;4.70;;;2.13;;
40052;SDS011;25758;48.200;16.338;2023-05-28T08:10:53;10.00;;;2.67;;
40052;SDS011;25758;48.200;16.338;2023-05-28T08:13:19;8.65;;;3.28;;
40052;SDS011;25758;48.200;16.338;2023-05-28T08:15:45;5.00;;;2.60;;
40052;SDS011;25758;48.200;16.338;2023-05-28T08:18:11;8.45;;;2.28;;
40052;SDS011;25758;48.200;16.338;2023-05-28T08:20:36;7.85;;;2.33;;
40052;SDS011;25758;48.200;16.338;2023-05-28T08:23:02;7.88;;;3.33;;
40052;SDS011;25758;48.200;16.338;2023-05-28T08:25:28;6.35;;;2.90;;
40052;SDS011;25758;48.200;16.338;2023-05-28T08:27:53;6.07;;;2.53;;
40052;SDS011;25758;48.200;16.338;2023-05-28T08:30:19;7.38;;;2.85;;
40052;SDS011;25758;48.200;16.338;2023-05-28T08:32:45;8.13;;;2.50;;
40052;SDS011;25758;48.200;16.338;2023-05-28T08:35:11;9.98;;;2.67;;
40052;SDS011;25758;48.200;16.338;2023-05-28T08:37:37;5.75;;;2.40;;
40052;SDS011;25758;48.200;16.338;2023-05-28T08:40:04;9.32;;;3.40;;
40052;SDS011;25758;48.200;16.338;2023-05-28T08:42:33;10.13;;;2.45;;
40052;SDS011;25758;48.200;16.338;2023-05-28T08:45:00;6.97;;;2.88;;
40052;SDS011;25758;48.200;16.338;2023-05-28T08:47:32;9.60;;;2.70;;
40052;SDS011;25758;48.200;16.338;2023-05-28T08:49:59;5.80;;;2.35;;
40052;SDS011;25758;48.200;16.338;2023-05-28T08:52:31;9.07;;;2.92;;
40052;SDS011;25758;48.200;16.338;2023-05-28T08:54:58;12.15;;;6.88;;
40052;SDS011;25758;48.200;16.338;2023-05-28T08:57:26;9.27;;;4.95;;
40052;SDS011;25758;48.200;16.338;2023-05-28T08:59:54;7.00;;;2.72;;
40052;SDS011;25758;48.200;16.338;2023-05-28T09:02:24;5.97;;;2.35;;
40052;SDS011;25758;48.200;16.338;2023-05-28T09:04:50;5.28;;;1.98;;
40052;SDS011;25758;48.200;16.338;2023-05-28T09:07:16;5.47;;;2.42;;
40052;SDS011;25758;48.200;16.338;2023-05-28T09:09:42;6.05;;;2.22;;
40052;SDS011;25758;48.200;16.338;2023-05-28T09:12:10;12.60;;;2.60;;
40052;SDS011;25758;48.200;16.338;2023-05-28T09:14:37;6.65;;;1.98;;
40052;SDS011;25758;48.200;16.338;2023-05-28T09:17:06;5.63;;;2.15;;
40052;SDS011;25758;48.200;16.338;2023-05-28T09:19:35;4.05;;;1.83;;
40052;SDS011;25758;48.200;16.338;2023-05-28T09:22:02;6.60;;;2.47;;
40052;SDS011;25758;48.200;16.338;2023-05-28T09:24:31;14.73;;;2.80;;
40052;SDS011;25758;48.200;16.338;2023-05-28T09:26:57;6.35;;;2.33;;
40052;SDS011;25758;48.200;16.338;2023-05-28T09:29:24;10.07;;;2.20;;
40052;SDS011;25758;48.200;16.338;2023-05-28T09:31:57;5.43;;;2.33;;
40052;SDS011;25758;48.200;16.338;2023-05-28T09:34:30;7.15;;;3.17;;
40052;SDS011;25758;48.200;16.338;2023-05-28T09:37:03;8.30;;;2.57;;
40052;SDS011;25758;48.200;16.338;2023-05-28T09:39:30;9.98;;;3.47;;
40052;SDS011;25758;48.200;16.338;2023-05-28T09:42:00;14.65;;;5.55;;
40052;SDS011;25758;48.200;16.338;2023-05-28T09:46:56;10.63;;;6.13;;
40052;SDS011;25758;48.200;16.338;2023-05-28T09:49:22;93.43;;;42.53;;
40052;SDS011;25758;48.200;16.338;2023-05-28T09:51:47;57.92;;;20.42;;
40052;SDS011;25758;48.200;16.338;2023-05-28T09:54:18;152.60;;;47.72;;
40052;SDS011;25758;48.200;16.338;2023-05-28T09:56:44;147.35;;;52.05;;
40052;SDS011;25758;48.200;16.338;2023-05-28T09:59:15;234.77;;;70.15;;
40052;SDS011;25758;48.200;16.338;2023-05-28T10:01:59;342.77;;;128.40;;
40052;SDS011;25758;48.200;16.338;2023-05-28T10:04:32;176.85;;;76.22;;
40052;SDS011;25758;48.200;16.338;2023-05-28T10:07:01;202.32;;;93.00;;
40052;SDS011;25758;48.200;16.338;2023-05-28T10:09:29;55.40;;;27.38;;
40052;SDS011;25758;48.200;16.338;2023-05-28T10:12:11;35.88;;;16.95;;
40052;SDS011;25758;48.200;16.338;2023-05-28T10:14:41;42.28;;;21.42;;
40052;SDS011;25758;48.200;16.338;2023-05-28T10:17:08;19.65;;;9.02;;
40052;SDS011;25758;48.200;16.338;2023-05-28T10:19:35;16.73;;;9.45;;
40052;SDS011;25758;48.200;16.338;2023-05-28T10:22:02;45.22;;;15.63;;
40052;SDS011;25758;48.200;16.338;2023-05-28T10:24:27;14.63;;;4.60;;
40052;SDS011;25758;48.200;16.338;2023-05-28T10:26:54;9.93;;;4.07;;
40052;SDS011;25758;48.200;16.338;2023-05-28T10:29:20;8.57;;;3.28;;
40052;SDS011;25758;48.200;16.338;2023-05-28T10:31:56;13.25;;;5.22;;
40052;SDS011;25758;48.200;16.338;2023-05-28T10:34:30;12.70;;;4.20;;
40052;SDS011;25758;48.200;16.338;2023-05-28T10:37:00;11.57;;;4.13;;
40052;SDS011;25758;48.200;16.338;2023-05-28T10:42:17;10.30;;;2.50;;
40052;SDS011;25758;48.200;16.338;2023-05-28T10:44:49;10.65;;;4.32;;
40052;SDS011;25758;48.200;16.338;2023-05-28T10:47:34;8.38;;;3.20;;
40052;SDS011;25758;48.200;16.338;2023-05-28T10:50:16;7.55;;;2.58;;
40052;SDS011;25758;48.200;16.338;2023-05-28T10:52:43;6.90;;;3.88;;
40052;SDS011;25758;48.200;16.338;2023-05-28T10:55:27;9.73;;;4.18;;
40052;SDS011;25758;48.200;16.338;2023-05-28T10:57:53;8.75;;;3.70;;
40052;SDS011;25758;48.200;16.338;2023-05-28T11:00:34;5.95;;;2.65;;
40052;SDS011;25758;48.200;16.338;2023-05-28T11:03:05;9.25;;;3.80;;
40052;SDS011;25758;48.200;16.338;2023-05-28T11:05:31;12.68;;;4.00;;
40052;SDS011;25758;48.200;16.338;2023-05-28T11:07:59;10.48;;;3.95;;
40052;SDS011;25758;48.200;16.338;2023-05-28T11:10:27;10.25;;;3.25;;
40052;SDS011;25758;48.200;16.338;2023-05-28T11:12:53;9.95;;;3.30;;
40052;SDS011;25758;48.200;16.338;2023-05-28T11:15:20;14.30;;;3.22;;
40052;SDS011;25758;48.200;16.338;2023-05-28T11:17:46;5.60;;;2.90;;
40052;SDS011;25758;48.200;16.338;2023-05-28T11:20:18;7.97;;;3.00;;
40052;SDS011;25758;48.200;16.338;2023-05-28T11:22:45;15.32;;;4.00;;
40052;SDS011;25758;48.200;16.338;2023-05-28T11:25:11;10.63;;;3.47;;
40052;SDS011;25758;48.200;16.338;2023-05-28T11:27:37;8.20;;;3.40;;
40052;SDS011;25758;48.200;16.338;2023-05-28T11:30:14;8.32;;;4.22;;
40052;SDS011;25758;48.200;16.338;2023-05-28T11:32:41;8.05;;;3.60;;
40052;SDS011;25758;48.200;16.338;2023-05-28T11:35:14;7.72;;;3.63;;
40052;SDS011;25758;48.200;16.338;2023-05-28T11:37:42;9.52;;;2.70;;
40052;SDS011;25758;48.200;16.338;2023-05-28T11:40:09;10.38;;;3.65;;
40052;SDS011;25758;48.200;16.338;2023-05-28T11:42:37;7.22;;;3.03;;
40052;SDS011;25758;48.200;16.338;2023-05-28T11:45:04;8.35;;;3.10;;
40052;SDS011;25758;48.200;16.338;2023-05-28T11:47:31;5.82;;;2.92;;
40052;SDS011;25758;48.200;16.338;2023-05-28T11:49:58;10.85;;;2.88;;
40052;SDS011;25758;48.200;16.338;2023-05-28T11:52:30;8.23;;;2.60;;
40052;SDS011;25758;48.200;16.338;2023-05-28T11:54:56;7.43;;;3.03;;
40052;SDS011;25758;48.200;16.338;2023-05-28T11:57:24;10.55;;;3.20;;
40052;SDS011;25758;48.200;16.338;2023-05-28T12:00:07;9.32;;;2.70;;
40052;SDS011;25758;48.200;16.338;2023-05-28T12:02:47;12.98;;;4.07;;
40052;SDS011;25758;48.200;16.338;2023-05-28T12:05:14;9.32;;;3.20;;
40052;SDS011;25758;48.200;16.338;2023-05-28T12:07:45;8.15;;;2.70;;
40052;SDS011;25758;48.200;16.338;2023-05-28T12:10:13;9.48;;;2.75;;
40052;SDS011;25758;48.200;16.338;2023-05-28T12:12:43;10.65;;;3.33;;
40052;SDS011;25758;48.200;16.338;2023-05-28T12:15:10;9.32;;;3.17;;
40052;SDS011;25758;48.200;16.338;2023-05-28T12:17:37;5.38;;;2.38;;
40052;SDS011;25758;48.200;16.338;2023-05-28T12:20:05;7.15;;;2.90;;
40052;SDS011;25758;48.200;16.338;2023-05-28T12:22:37;10.70;;;2.70;;
40052;SDS011;25758;48.200;16.338;2023-05-28T12:25:06;8.02;;;2.67;;
40052;SDS011;25758;48.200;16.338;2023-05-28T12:27:33;7.95;;;2.67;;
40052;SDS011;25758;48.200;16.338;2023-05-28T12:29:59;6.93;;;2.33;;
40052;SDS011;25758;48.200;16.338;2023-05-28T12:32:25;10.40;;;3.15;;
40052;SDS011;25758;48.200;16.338;2023-05-28T12:34:51;10.70;;;3.08;;
40052;SDS011;25758;48.200;16.338;2023-05-28T12:37:18;9.55;;;2.78;;
40052;SDS011;25758;48.200;16.338;2023-05-28T12:39:45;8.27;;;3.50;;
40052;SDS011;25758;48.200;16.338;2023-05-28T12:42:11;8.60;;;4.30;;
40052;SDS011;25758;48.200;16.338;2023-05-28T12:44:37;8.30;;;3.13;;
40052;SDS011;25758;48.200;16.338;2023-05-28T12:47:02;7.38;;;3.42;;
40052;SDS011;25758;48.200;16.338;2023-05-28T12:49:28;11.90;;;3.33;;
40052;SDS011;25758;48.200;16.338;2023-05-28T12:51:53;7.10;;;2.90;;
40052;SDS011;25758;48.200;16.338;2023-05-28T12:54:19;7.45;;;3.35;;
40052;SDS011;25758;48.200;16.338;2023-05-28T12:56:45;8.23;;;3.10;;
40052;SDS011;25758;48.200;16.338;2023-05-28T12:59:21;7.85;;;3.22;;
40052;SDS011;25758;48.200;16.338;2023-05-28T13:01:50;11.75;;;3.50;;
40052;SDS011;25758;48.200;16.338;2023-05-28T13:04:16;9.68;;;3.15;;
40052;SDS011;25758;48.200;16.338;2023-05-28T13:06:43;6.97;;;3.13;;
40052;SDS011;25758;48.200;16.338;2023-05-28T13:09:10;6.75;;;2.53;;
40052;SDS011;25758;48.200;16.338;2023-05-28T13:11:37;13.85;;;6.22;;
40052;SDS011;25758;48.200;16.338;2023-05-28T13:14:04;9.73;;;4.47;;
40052;SDS011;25758;48.200;16.338;2023-05-28T13:16:31;14.13;;;7.22;;
40052;SDS011;25758;48.200;16.338;2023-05-28T13:18:56;25.65;;;14.40;;
40052;SDS011;25758;48.200;16.338;2023-05-28T13:21:22;8.00;;;3.92;;
40052;SDS011;25758;48.200;16.338;2023-05-28T13:23:48;6.93;;;3.38;;
40052;SDS011;25758;48.200;16.338;2023-05-28T13:26:14;12.82;;;5.28;;
40052;SDS011;25758;48.200;16.338;2023-05-28T13:28:40;11.80;;;4.10;;
40052;SDS011;25758;48.200;16.338;2023-05-28T13:31:05;12.35;;;4.65;;
40052;SDS011;25758;48.200;16.338;2023-05-28T13:33:32;11.10;;;6.90;;
40052;SDS011;25758;48.200;16.338;2023-05-28T13:35:57;107.68;;;69.85;;
40052;SDS011;25758;48.200;16.338;2023-05-28T13:38:23;15.65;;;7.68;;
40052;SDS011;25758;48.200;16.338;2023-05-28T13:40:48;8.10;;;3.90;;
40052;SDS011;25758;48.200;16.338;2023-05-28T13:43:14;8.18;;;3.67;;
40052;SDS011;25758;48.200;16.338;2023-05-28T13:45:40;9.90;;;3.75;;
40052;SDS011;25758;48.200;16.338;2023-05-28T13:48:06;12.30;;;4.10;;
40052;SDS011;25758;48.200;16.338;2023-05-28T13:50:32;8.13;;;3.72;;
40052;SDS011;25758;48.200;16.338;2023-05-28T13:53:01;11.00;;;3.53;;
40052;SDS011;25758;48.200;16.338;2023-05-28T13:55:27;8.60;;;3.25;;
40052;SDS011;25758;48.200;16.338;2023-05-28T13:57:52;8.90;;;3.45;;
40052;SDS011;25758;48.200;16.338;2023-05-28T14:00:18;8.88;;;2.97;;
40052;SDS011;25758;48.200;16.338;2023-05-28T14:02:45;6.18;;;3.30;;
40052;SDS011;25758;48.200;16.338;2023-05-28T14:05:13;9.32;;;3.63;;
40052;SDS011;25758;48.200;16.338;2023-05-28T14:07:39;7.35;;;3.50;;
40052;SDS011;25758;48.200;16.338;2023-05-28T14:10:05;11.27;;;4.40;;
40052;SDS011;25758;48.200;16.338;2023-05-28T14:12:31;7.05;;;3.60;;
40052;SDS011;25758;48.200;16.338;2023-05-28T14:14:57;7.90;;;2.85;;
40052;SDS011;25758;48.200;16.338;2023-05-28T14:17:22;8.68;;;2.80;;
40052;SDS011;25758;48.200;16.338;2023-05-28T14:19:48;7.28;;;3.38;;
40052;SDS011;25758;48.200;16.338;2023-05-28T14:22:14;8.20;;;3.30;;
40052;SDS011;25758;48.200;16.338;2023-05-28T14:24:39;7.03;;;3.13;;
40052;SDS011;25758;48.200;16.338;2023-05-28T14:27:05;11.20;;;3.55;;
40052;SDS011;25758;48.200;16.338;2023-05-28T14:29:31;8.35;;;3.17;;
40052;SDS011;25758;48.200;16.338;2023-05-28T14:31:57;7.05;;;3.47;;
40052;SDS011;25758;48.200;16.338;2023-05-28T14:34:22;6.28;;;2.90;;